San Francisco, CA

10:01 AM PDT on July 07, 2015 (GMT -0700)
HADS | | Change Station
CLOSE
Current Station
Personal Weather Station
Location: San Francisco, CA
Elevation: 149 ft
Nearby Weather Stations

Elev 149 ft 37.77 °N, 122.43 °W | Updated 6 days ago

Cloudy
Cloudy
63 °F
Feels Like 63 °F
N
9
Wind Variable Wind from WNW
Gusts mph

Today
High -- | Low -- °F
--% Chance of Precip.
Yesterday
High -- | Low -- °F
Precip. -- in
5:54 AM 8:34 PM
Waning Gibbous, 63% visible
Pressure 30.03 in
Visibility 10.0 miles
Clouds Few 1400 ft
Overcast 2200 ft
Dew Point 58 °F
Humidity 84%
Rainfall in
Snow Depth Not available.
UV 2 out of 12
Pollen 3.20 out of 12
Air Quality Not available.
Flu Activity Not available.
METAR KSFO 071656Z 26007KT 10SM FEW014 OVC022 20/14 A3003 RMK AO2 SLP167 T02000139

More Conditions Fewer Conditions

Pressure 30.03 in
Visibility 10.0 miles
Clouds Few 1400 ft
Overcast 2200 ft
Dew Point 58 °F
Humidity 84%
Rainfall in
Snow Depth Not available.
UV 2 out of 12
Pollen 3.20 out of 12
Air Quality Not available.
Flu Activity Not available.
METAR KSFO 071656Z 26007KT 10SM FEW014 OVC022 20/14 A3003 RMK AO2 SLP167 T02000139

More Conditions Fewer Conditions

10-Day Weather Forecast

×

Almanac

Astronomy

Jul. 07, 2015 Rise Set
Actual Time
Civil Twilight
Nautical Twilight
Astronomical Twilight
Moon
Length of Visible Light
Length of Day
Tomorrow will be .
, % of the Moon is Illuminated

Today's Extremes

State Highs State Lows

Community

WunderPhotos

Upload Photos

1,835,857 photos uploaded!

WunderBlogs® & News

Nearby

Air Quality

  Air Quality AQ Index Pollutant
Not available.

Snow Depth

Station Depth Elevation

Earthquake Activity

City Distance Mag. Time & Date
Minimum magnitude displayed is 2.5.

Coastal Water Temperatures

Place Temperature

Stations

Nearby Weather Stations

Station Location Temp. Windchill Dew Point Humidity Wind Precip. Elev Updated Type